sensor_id;sensor_type;location;lat;lon;timestamp;temperature;humidity
8338;DHT22;4206;48.634;9.516;2023-04-25T08:57:17;7.80;99.90
8338;DHT22;4206;48.634;9.516;2023-04-25T08:59:46;7.40;99.90
8338;DHT22;4206;48.634;9.516;2023-04-25T09:02:14;7.20;99.90
8338;DHT22;4206;48.634;9.516;2023-04-25T09:04:44;7.40;99.90
8338;DHT22;4206;48.634;9.516;2023-04-25T09:07:11;7.30;99.90
8338;DHT22;4206;48.634;9.516;2023-04-25T09:09:38;7.30;99.90
8338;DHT22;4206;48.634;9.516;2023-04-25T09:12:06;7.20;99.90
8338;DHT22;4206;48.634;9.516;2023-04-25T09:14:35;7.00;99.90
8338;DHT22;4206;48.634;9.516;2023-04-25T09:17:04;6.90;99.90
8338;DHT22;4206;48.634;9.516;2023-04-25T09:19:34;7.00;99.90
8338;DHT22;4206;48.634;9.516;2023-04-25T09:22:08;6.90;99.90
8338;DHT22;4206;48.634;9.516;2023-04-25T09:24:37;6.70;99.90
8338;DHT22;4206;48.634;9.516;2023-04-25T13:13:07;8.40;99.90
8338;DHT22;4206;48.634;9.516;2023-04-25T13:15:36;8.50;99.90
8338;DHT22;4206;48.634;9.516;2023-04-25T13:18:04;8.60;99.90
8338;DHT22;4206;48.634;9.516;2023-04-25T13:20:32;8.60;99.90
8338;DHT22;4206;48.634;9.516;2023-04-25T13:23:01;8.50;99.90
8338;DHT22;4206;48.634;9.516;2023-04-25T13:25:32;8.60;99.90
8338;DHT22;4206;48.634;9.516;2023-04-25T13:28:00;8.70;99.90
8338;DHT22;4206;48.634;9.516;2023-04-25T13:30:28;8.80;99.90
8338;DHT22;4206;48.634;9.516;2023-04-25T13:32:56;8.80;99.90
8338;DHT22;4206;48.634;9.516;2023-04-25T13:35:26;8.80;99.90
8338;DHT22;4206;48.634;9.516;2023-04-25T13:37:53;8.50;99.90
8338;DHT22;4206;48.634;9.516;2023-04-25T13:40:20;8.80;99.90
8338;DHT22;4206;48.634;9.516;2023-04-25T13:42:51;9.30;99.90
8338;DHT22;4206;48.634;9.516;2023-04-25T13:45:19;9.40;99.90
8338;DHT22;4206;48.634;9.516;2023-04-25T13:47:47;9.50;99.90
8338;DHT22;4206;48.634;9.516;2023-04-25T13:50:19;9.60;99.90
8338;DHT22;4206;48.634;9.516;2023-04-25T13:52:48;10.50;99.90
8338;DHT22;4206;48.634;9.516;2023-04-25T13:55:16;12.00;99.90
8338;DHT22;4206;48.634;9.516;2023-04-25T13:57:45;12.20;99.90
8338;DHT22;4206;48.634;9.516;2023-04-25T14:00:13;13.20;99.90
8338;DHT22;4206;48.634;9.516;2023-04-25T14:02:41;13.20;99.90
8338;DHT22;4206;48.634;9.516;2023-04-25T14:05:09;12.90;99.90
8338;DHT22;4206;48.634;9.516;2023-04-25T14:07:37;13.10;99.90
8338;DHT22;4206;48.634;9.516;2023-04-25T14:10:04;12.80;99.90
8338;DHT22;4206;48.634;9.516;2023-04-25T14:12:32;12.40;99.90
8338;DHT22;4206;48.634;9.516;2023-04-25T14:14:59;12.40;99.90
8338;DHT22;4206;48.634;9.516;2023-04-25T14:17:27;11.70;99.90
8338;DHT22;4206;48.634;9.516;2023-04-25T14:19:54;11.30;99.90
8338;DHT22;4206;48.634;9.516;2023-04-25T14:22:22;11.10;99.90
8338;DHT22;4206;48.634;9.516;2023-04-25T14:24:49;11.00;99.90
8338;DHT22;4206;48.634;9.516;2023-04-25T14:27:16;10.90;99.90
8338;DHT22;4206;48.634;9.516;2023-04-25T14:29:44;10.40;99.90
8338;DHT22;4206;48.634;9.516;2023-04-25T14:32:11;10.30;99.90
8338;DHT22;4206;48.634;9.516;2023-04-25T14:34:38;10.20;99.90
8338;DHT22;4206;48.634;9.516;2023-04-25T14:37:06;10.30;99.90
8338;DHT22;4206;48.634;9.516;2023-04-25T14:39:33;10.20;99.90
8338;DHT22;4206;48.634;9.516;2023-04-25T14:42:01;10.50;99.90
8338;DHT22;4206;48.634;9.516;2023-04-25T14:44:28;10.60;99.90
8338;DHT22;4206;48.634;9.516;2023-04-25T14:46:59;10.90;99.90
8338;DHT22;4206;48.634;9.516;2023-04-25T14:49:28;11.40;99.90
8338;DHT22;4206;48.634;9.516;2023-04-25T14:51:56;12.30;99.90
8338;DHT22;4206;48.634;9.516;2023-04-25T14:54:23;12.50;99.90
8338;DHT22;4206;48.634;9.516;2023-04-25T14:56:51;12.50;99.90
8338;DHT22;4206;48.634;9.516;2023-04-25T14:59:17;12.60;99.90
8338;DHT22;4206;48.634;9.516;2023-04-25T15:01:48;12.10;99.90
8338;DHT22;4206;48.634;9.516;2023-04-25T15:04:16;11.90;99.90
8338;DHT22;4206;48.634;9.516;2023-04-25T15:06:45;11.60;99.90
8338;DHT22;4206;48.634;9.516;2023-04-25T15:09:12;11.40;99.90
8338;DHT22;4206;48.634;9.516;2023-04-25T15:11:40;11.30;99.90
8338;DHT22;4206;48.634;9.516;2023-04-25T15:14:07;10.70;99.90
8338;DHT22;4206;48.634;9.516;2023-04-25T15:16:35;10.40;99.90
8338;DHT22;4206;48.634;9.516;2023-04-25T15:19:02;10.10;99.90
8338;DHT22;4206;48.634;9.516;2023-04-25T15:21:31;10.10;99.90
8338;DHT22;4206;48.634;9.516;2023-04-25T15:23:58;10.50;99.90
8338;DHT22;4206;48.634;9.516;2023-04-25T15:26:26;10.80;99.90
8338;DHT22;4206;48.634;9.516;2023-04-25T15:28:54;11.00;99.90
8338;DHT22;4206;48.634;9.516;2023-04-25T15:31:21;11.50;99.90
8338;DHT22;4206;48.634;9.516;2023-04-25T15:33:48;10.90;99.90
8338;DHT22;4206;48.634;9.516;2023-04-25T15:36:19;10.60;99.90
8338;DHT22;4206;48.634;9.516;2023-04-25T15:38:48;10.60;99.90
8338;DHT22;4206;48.634;9.516;2023-04-25T15:41:15;10.90;99.90
8338;DHT22;4206;48.634;9.516;2023-04-25T15:43:42;10.90;99.90
8338;DHT22;4206;48.634;9.516;2023-04-25T15:46:10;11.10;99.90
8338;DHT22;4206;48.634;9.516;2023-04-25T15:48:37;11.30;99.90
8338;DHT22;4206;48.634;9.516;2023-04-25T15:51:04;10.80;99.90
8338;DHT22;4206;48.634;9.516;2023-04-25T15:53:31;10.80;99.90
8338;DHT22;4206;48.634;9.516;2023-04-25T15:55:58;11.00;99.90
8338;DHT22;4206;48.634;9.516;2023-04-25T15:58:25;10.80;99.90
8338;DHT22;4206;48.634;9.516;2023-04-25T16:00:55;10.70;99.90
8338;DHT22;4206;48.634;9.516;2023-04-25T16:03:23;10.80;99.90
8338;DHT22;4206;48.634;9.516;2023-04-25T16:05:50;10.80;99.90
8338;DHT22;4206;48.634;9.516;2023-04-25T16:08:18;10.90;99.90
8338;DHT22;4206;48.634;9.516;2023-04-25T16:10:45;10.90;99.90
8338;DHT22;4206;48.634;9.516;2023-04-25T16:13:13;10.90;99.90
8338;DHT22;4206;48.634;9.516;2023-04-25T16:15:40;10.80;99.90
8338;DHT22;4206;48.634;9.516;2023-04-25T16:18:07;10.80;99.90
8338;DHT22;4206;48.634;9.516;2023-04-25T16:20:35;10.40;99.90
8338;DHT22;4206;48.634;9.516;2023-04-25T16:23:02;10.30;99.90
8338;DHT22;4206;48.634;9.516;2023-04-25T16:25:29;10.20;99.90
8338;DHT22;4206;48.634;9.516;2023-04-25T16:27:56;10.10;99.90
8338;DHT22;4206;48.634;9.516;2023-04-25T16:30:23;10.10;99.90
8338;DHT22;4206;48.634;9.516;2023-04-25T16:32:50;10.10;99.90
8338;DHT22;4206;48.634;9.516;2023-04-25T16:35:17;10.20;99.90
8338;DHT22;4206;48.634;9.516;2023-04-25T16:37:43;10.30;99.90
8338;DHT22;4206;48.634;9.516;2023-04-25T16:40:12;10.30;99.90
8338;DHT22;4206;48.634;9.516;2023-04-25T16:42:41;10.30;99.90
8338;DHT22;4206;48.634;9.516;2023-04-25T16:45:10;10.20;99.90
8338;DHT22;4206;48.634;9.516;2023-04-25T16:47:37;10.00;99.90
8338;DHT22;4206;48.634;9.516;2023-04-25T16:50:05;9.70;99.90
8338;DHT22;4206;48.634;9.516;2023-04-25T16:52:36;9.70;99.90
8338;DHT22;4206;48.634;9.516;2023-04-25T16:55:04;9.40;99.90
8338;DHT22;4206;48.634;9.516;2023-04-25T16:57:35;9.30;99.90
8338;DHT22;4206;48.634;9.516;2023-04-25T17:00:05;9.10;99.90
8338;DHT22;4206;48.634;9.516;2023-04-25T17:02:35;8.90;99.90
8338;DHT22;4206;48.634;9.516;2023-04-25T17:05:04;8.80;99.90
8338;DHT22;4206;48.634;9.516;2023-04-25T17:07:32;8.50;99.90
8338;DHT22;4206;48.634;9.516;2023-04-25T17:10:01;8.50;99.90
8338;DHT22;4206;48.634;9.516;2023-04-25T17:12:29;8.40;99.90
8338;DHT22;4206;48.634;9.516;2023-04-25T17:14:58;8.40;99.90
8338;DHT22;4206;48.634;9.516;2023-04-25T17:17:26;8.40;99.90
8338;DHT22;4206;48.634;9.516;2023-04-25T17:19:53;8.20;99.90
8338;DHT22;4206;48.634;9.516;2023-04-25T17:22:20;8.20;99.90
8338;DHT22;4206;48.634;9.516;2023-04-25T17:24:48;8.10;99.90
8338;DHT22;4206;48.634;9.516;2023-04-25T17:27:15;8.00;99.90
8338;DHT22;4206;48.634;9.516;2023-04-25T17:29:43;7.90;99.90
8338;DHT22;4206;48.634;9.516;2023-04-25T17:32:11;7.80;99.90
8338;DHT22;4206;48.634;9.516;2023-04-25T17:34:38;7.70;99.90
8338;DHT22;4206;48.634;9.516;2023-04-25T17:37:06;7.70;99.90
8338;DHT22;4206;48.634;9.516;2023-04-25T17:39:35;7.60;99.90
8338;DHT22;4206;48.634;9.516;2023-04-25T17:42:02;7.50;99.90
8338;DHT22;4206;48.634;9.516;2023-04-25T17:44:30;7.60;99.90
8338;DHT22;4206;48.634;9.516;2023-04-25T17:46:57;7.50;99.90
8338;DHT22;4206;48.634;9.516;2023-04-25T17:49:24;7.40;99.90
8338;DHT22;4206;48.634;9.516;2023-04-25T17:51:50;7.60;99.90
8338;DHT22;4206;48.634;9.516;2023-04-25T17:54:17;7.30;99.90
8338;DHT22;4206;48.634;9.516;2023-04-25T17:56:47;7.30;99.90
8338;DHT22;4206;48.634;9.516;2023-04-25T17:59:17;7.20;99.90
8338;DHT22;4206;48.634;9.516;2023-04-25T18:01:45;7.20;99.90
8338;DHT22;4206;48.634;9.516;2023-04-25T18:04:13;7.20;99.90
8338;DHT22;4206;48.634;9.516;2023-04-25T18:06:40;7.10;99.90
8338;DHT22;4206;48.634;9.516;2023-04-25T18:09:08;7.20;99.90
8338;DHT22;4206;48.634;9.516;2023-04-25T18:11:42;7.10;99.90
8338;DHT22;4206;48.634;9.516;2023-04-25T18:14:11;7.10;99.90
8338;DHT22;4206;48.634;9.516;2023-04-25T18:16:42;7.20;99.90
8338;DHT22;4206;48.634;9.516;2023-04-25T18:19:09;7.10;99.90
8338;DHT22;4206;48.634;9.516;2023-04-25T18:21:38;7.10;99.90
8338;DHT22;4206;48.634;9.516;2023-04-25T18:24:07;7.00;99.90
8338;DHT22;4206;48.634;9.516;2023-04-25T18:26:38;6.90;99.90
8338;DHT22;4206;48.634;9.516;2023-04-25T18:29:07;6.90;99.90
8338;DHT22;4206;48.634;9.516;2023-04-25T18:31:39;6.90;99.90
8338;DHT22;4206;48.634;9.516;2023-04-25T18:34:07;6.80;99.90
8338;DHT22;4206;48.634;9.516;2023-04-25T18:36:36;6.80;99.90
8338;DHT22;4206;48.634;9.516;2023-04-25T18:39:05;6.80;99.90
8338;DHT22;4206;48.634;9.516;2023-04-25T18:41:47;6.80;99.90
8338;DHT22;4206;48.634;9.516;2023-04-25T18:44:25;6.80;99.90
8338;DHT22;4206;48.634;9.516;2023-04-25T18:46:54;6.80;99.90
8338;DHT22;4206;48.634;9.516;2023-04-25T18:49:21;6.80;99.90
8338;DHT22;4206;48.634;9.516;2023-04-25T18:51:48;6.90;99.90
8338;DHT22;4206;48.634;9.516;2023-04-25T18:54:15;6.90;99.90
8338;DHT22;4206;48.634;9.516;2023-04-25T18:56:42;7.00;99.90
8338;DHT22;4206;48.634;9.516;2023-04-25T18:59:09;7.00;99.90
8338;DHT22;4206;48.634;9.516;2023-04-25T19:01:36;7.00;99.90
8338;DHT22;4206;48.634;9.516;2023-04-25T19:04:03;7.00;99.90
8338;DHT22;4206;48.634;9.516;2023-04-25T19:06:32;7.00;99.90
8338;DHT22;4206;48.634;9.516;2023-04-25T19:08:59;6.90;99.90
8338;DHT22;4206;48.634;9.516;2023-04-25T19:11:27;6.90;99.90
8338;DHT22;4206;48.634;9.516;2023-04-25T19:13:54;6.90;99.90
8338;DHT22;4206;48.634;9.516;2023-04-25T19:16:23;6.80;99.90
8338;DHT22;4206;48.634;9.516;2023-04-25T19:18:54;6.80;99.90
8338;DHT22;4206;48.634;9.516;2023-04-25T19:21:23;6.80;99.90
8338;DHT22;4206;48.634;9.516;2023-04-25T19:23:51;6.80;99.90
8338;DHT22;4206;48.634;9.516;2023-04-25T19:26:20;6.80;99.90
8338;DHT22;4206;48.634;9.516;2023-04-25T19:29:03;6.70;99.90
8338;DHT22;4206;48.634;9.516;2023-04-25T19:31:38;6.80;99.90
8338;DHT22;4206;48.634;9.516;2023-04-25T19:34:07;6.70;99.90
8338;DHT22;4206;48.634;9.516;2023-04-25T19:36:37;6.70;99.90
8338;DHT22;4206;48.634;9.516;2023-04-25T19:39:05;6.60;99.90
8338;DHT22;4206;48.634;9.516;2023-04-25T19:41:35;6.70;99.90
8338;DHT22;4206;48.634;9.516;2023-04-25T19:44:03;6.70;99.90
8338;DHT22;4206;48.634;9.516;2023-04-25T19:46:33;6.60;99.90
8338;DHT22;4206;48.634;9.516;2023-04-25T19:49:01;6.70;99.90
8338;DHT22;4206;48.634;9.516;2023-04-25T19:51:32;6.60;99.90
8338;DHT22;4206;48.634;9.516;2023-04-25T19:54:00;6.60;99.90
8338;DHT22;4206;48.634;9.516;2023-04-25T19:56:27;6.50;99.90
8338;DHT22;4206;48.634;9.516;2023-04-25T19:58:55;6.50;99.90
8338;DHT22;4206;48.634;9.516;2023-04-25T20:01:24;6.50;99.90
8338;DHT22;4206;48.634;9.516;2023-04-25T20:03:52;6.50;99.90
8338;DHT22;4206;48.634;9.516;2023-04-25T20:06:20;6.60;99.90
8338;DHT22;4206;48.634;9.516;2023-04-25T20:08:49;6.60;99.90
8338;DHT22;4206;48.634;9.516;2023-04-25T20:11:16;6.50;99.90
8338;DHT22;4206;48.634;9.516;2023-04-25T20:13:47;6.60;99.90
8338;DHT22;4206;48.634;9.516;2023-04-25T20:16:15;6.60;99.90
8338;DHT22;4206;48.634;9.516;2023-04-25T20:18:47;6.60;99.90
8338;DHT22;4206;48.634;9.516;2023-04-25T20:21:16;6.60;99.90
8338;DHT22;4206;48.634;9.516;2023-04-25T20:23:45;6.60;99.90
8338;DHT22;4206;48.634;9.516;2023-04-25T20:26:15;6.70;99.90
8338;DHT22;4206;48.634;9.516;2023-04-25T20:28:43;6.70;99.90
8338;DHT22;4206;48.634;9.516;2023-04-25T20:31:12;6.70;99.90
8338;DHT22;4206;48.634;9.516;2023-04-25T20:33:41;6.60;99.90
8338;DHT22;4206;48.634;9.516;2023-04-25T20:36:09;6.70;99.90
8338;DHT22;4206;48.634;9.516;2023-04-25T20:38:36;6.60;99.90
8338;DHT22;4206;48.634;9.516;2023-04-25T20:41:03;6.70;99.90
8338;DHT22;4206;48.634;9.516;2023-04-25T20:43:31;6.70;99.90
8338;DHT22;4206;48.634;9.516;2023-04-25T20:45:59;6.60;99.90
8338;DHT22;4206;48.634;9.516;2023-04-25T20:48:26;6.60;99.90
8338;DHT22;4206;48.634;9.516;2023-04-25T20:50:53;6.60;99.90
8338;DHT22;4206;48.634;9.516;2023-04-25T20:53:20;6.60;99.90
8338;DHT22;4206;48.634;9.516;2023-04-25T20:55:48;6.60;99.90
8338;DHT22;4206;48.634;9.516;2023-04-25T20:58:16;6.60;99.90
8338;DHT22;4206;48.634;9.516;2023-04-25T21:00:43;6.60;99.90
8338;DHT22;4206;48.634;9.516;2023-04-25T21:03:13;6.60;99.90
8338;DHT22;4206;48.634;9.516;2023-04-25T21:05:42;6.60;99.90
8338;DHT22;4206;48.634;9.516;2023-04-25T21:08:09;6.60;99.90
8338;DHT22;4206;48.634;9.516;2023-04-25T21:10:36;6.60;99.90
8338;DHT22;4206;48.634;9.516;2023-04-25T21:13:03;6.60;99.90
8338;DHT22;4206;48.634;9.516;2023-04-25T21:15:31;6.60;99.90
8338;DHT22;4206;48.634;9.516;2023-04-25T21:18:00;6.50;99.90
8338;DHT22;4206;48.634;9.516;2023-04-25T21:20:28;6.60;99.90
8338;DHT22;4206;48.634;9.516;2023-04-25T21:22:56;6.50;99.90
8338;DHT22;4206;48.634;9.516;2023-04-25T21:25:24;6.50;99.90
8338;DHT22;4206;48.634;9.516;2023-04-25T21:27:58;6.50;99.90
8338;DHT22;4206;48.634;9.516;2023-04-25T21:30:25;6.50;99.90
8338;DHT22;4206;48.634;9.516;2023-04-25T21:32:53;6.50;99.90
8338;DHT22;4206;48.634;9.516;2023-04-25T21:35:21;6.50;99.90
8338;DHT22;4206;48.634;9.516;2023-04-25T21:37:49;6.50;99.90
8338;DHT22;4206;48.634;9.516;2023-04-25T21:40:16;6.50;99.90
8338;DHT22;4206;48.634;9.516;2023-04-25T21:42:46;6.50;99.90
8338;DHT22;4206;48.634;9.516;2023-04-25T21:45:16;6.50;99.90
8338;DHT22;4206;48.634;9.516;2023-04-25T21:47:44;6.50;99.90
8338;DHT22;4206;48.634;9.516;2023-04-25T21:50:13;6.50;99.90
8338;DHT22;4206;48.634;9.516;2023-04-25T21:52:40;6.50;99.90
8338;DHT22;4206;48.634;9.516;2023-04-25T21:55:08;6.50;99.90
8338;DHT22;4206;48.634;9.516;2023-04-25T21:57:36;6.50;99.90
8338;DHT22;4206;48.634;9.516;2023-04-25T22:00:04;6.50;99.90
8338;DHT22;4206;48.634;9.516;2023-04-25T22:02:31;6.50;99.90
8338;DHT22;4206;48.634;9.516;2023-04-25T22:04:59;6.50;99.90
8338;DHT22;4206;48.634;9.516;2023-04-25T22:07:26;6.50;99.90
8338;DHT22;4206;48.634;9.516;2023-04-25T22:09:53;6.50;99.90
8338;DHT22;4206;48.634;9.516;2023-04-25T22:12:21;6.70;99.90
8338;DHT22;4206;48.634;9.516;2023-04-25T22:14:49;6.60;99.90
8338;DHT22;4206;48.634;9.516;2023-04-25T22:17:16;6.60;99.90
8338;DHT22;4206;48.634;9.516;2023-04-25T22:19:45;6.60;99.90
8338;DHT22;4206;48.634;9.516;2023-04-25T22:22:13;6.50;99.90
8338;DHT22;4206;48.634;9.516;2023-04-25T22:24:40;6.50;99.90
8338;DHT22;4206;48.634;9.516;2023-04-25T22:27:08;6.50;99.90
8338;DHT22;4206;48.634;9.516;2023-04-25T22:29:39;6.50;99.90
8338;DHT22;4206;48.634;9.516;2023-04-25T22:32:06;6.40;99.90
8338;DHT22;4206;48.634;9.516;2023-04-25T22:34:33;6.40;99.90
8338;DHT22;4206;48.634;9.516;2023-04-25T22:37:00;6.40;99.90
8338;DHT22;4206;48.634;9.516;2023-04-25T22:39:28;6.40;99.90
8338;DHT22;4206;48.634;9.516;2023-04-25T22:41:57;6.40;99.90
8338;DHT22;4206;48.634;9.516;2023-04-25T22:44:24;6.30;99.90
8338;DHT22;4206;48.634;9.516;2023-04-25T22:46:52;6.30;99.90
8338;DHT22;4206;48.634;9.516;2023-04-25T22:49:20;6.30;99.90
8338;DHT22;4206;48.634;9.516;2023-04-25T22:51:47;6.30;99.90
8338;DHT22;4206;48.634;9.516;2023-04-25T22:54:19;6.20;99.90
8338;DHT22;4206;48.634;9.516;2023-04-25T22:56:47;6.20;99.90
8338;DHT22;4206;48.634;9.516;2023-04-25T22:59:14;6.20;99.90
8338;DHT22;4206;48.634;9.516;2023-04-25T23:01:41;6.20;99.90
8338;DHT22;4206;48.634;9.516;2023-04-25T23:04:09;6.10;99.90
8338;DHT22;4206;48.634;9.516;2023-04-25T23:06:38;6.10;99.90
8338;DHT22;4206;48.634;9.516;2023-04-25T23:09:06;6.10;99.90
8338;DHT22;4206;48.634;9.516;2023-04-25T23:11:35;6.00;99.90
8338;DHT22;4206;48.634;9.516;2023-04-25T23:14:02;6.00;99.90
8338;DHT22;4206;48.634;9.516;2023-04-25T23:16:30;6.00;99.90
8338;DHT22;4206;48.634;9.516;2023-04-25T23:18:57;6.00;99.90
8338;DHT22;4206;48.634;9.516;2023-04-25T23:21:24;6.00;99.90
8338;DHT22;4206;48.634;9.516;2023-04-25T23:23:51;5.90;99.90
8338;DHT22;4206;48.634;9.516;2023-04-25T23:26:18;6.00;99.90
8338;DHT22;4206;48.634;9.516;2023-04-25T23:28:46;6.10;99.90
8338;DHT22;4206;48.634;9.516;2023-04-25T23:31:13;6.00;99.90
8338;DHT22;4206;48.634;9.516;2023-04-25T23:33:40;6.00;99.90
8338;DHT22;4206;48.634;9.516;2023-04-25T23:36:14;6.00;99.90
8338;DHT22;4206;48.634;9.516;2023-04-25T23:38:42;5.90;99.90
8338;DHT22;4206;48.634;9.516;2023-04-25T23:41:08;5.90;99.90
8338;DHT22;4206;48.634;9.516;2023-04-25T23:43:35;5.90;99.90
8338;DHT22;4206;48.634;9.516;2023-04-25T23:46:02;5.90;99.90
8338;DHT22;4206;48.634;9.516;2023-04-25T23:48:29;5.90;99.90
8338;DHT22;4206;48.634;9.516;2023-04-25T23:50:56;5.90;99.90
8338;DHT22;4206;48.634;9.516;2023-04-25T23:53:23;5.80;99.90
8338;DHT22;4206;48.634;9.516;2023-04-25T23:55:50;5.80;99.90
8338;DHT22;4206;48.634;9.516;2023-04-25T23:58:17;5.80;99.90
